sensor_id;sensor_type;location;lat;lon;timestamp;temperature;humidity
463;DHT22;218;51.902;9.542;2023-06-10T00:00:28;21.60;1.00
463;DHT22;218;51.902;9.542;2023-06-10T00:02:56;21.60;1.00
463;DHT22;218;51.902;9.542;2023-06-10T00:05:23;21.50;1.00
463;DHT22;218;51.902;9.542;2023-06-10T00:10:20;21.60;1.00
463;DHT22;218;51.902;9.542;2023-06-10T00:12:47;21.50;1.00
463;DHT22;218;51.902;9.542;2023-06-10T00:15:14;21.50;1.00
463;DHT22;218;51.902;9.542;2023-06-10T00:17:41;21.40;1.00
463;DHT22;218;51.902;9.542;2023-06-10T00:20:09;21.40;1.00
463;DHT22;218;51.902;9.542;2023-06-10T00:22:37;21.40;1.00
463;DHT22;218;51.902;9.542;2023-06-10T00:25:07;21.40;1.00
463;DHT22;218;51.902;9.542;2023-06-10T00:27:34;21.30;1.00
463;DHT22;218;51.902;9.542;2023-06-10T00:30:02;21.20;1.00
463;DHT22;218;51.902;9.542;2023-06-10T00:32:32;21.10;1.00
463;DHT22;218;51.902;9.542;2023-06-10T00:34:59;21.10;1.00
463;DHT22;218;51.902;9.542;2023-06-10T00:37:26;21.10;1.00
463;DHT22;218;51.902;9.542;2023-06-10T00:39:54;21.00;1.00
463;DHT22;218;51.902;9.542;2023-06-10T00:42:22;21.00;1.00
463;DHT22;218;51.902;9.542;2023-06-10T00:44:49;21.00;1.00
463;DHT22;218;51.902;9.542;2023-06-10T00:47:17;20.90;1.00
463;DHT22;218;51.902;9.542;2023-06-10T00:49:44;20.70;1.00
463;DHT22;218;51.902;9.542;2023-06-10T00:52:12;20.70;1.00
463;DHT22;218;51.902;9.542;2023-06-10T00:54:40;20.60;1.00
463;DHT22;218;51.902;9.542;2023-06-10T00:57:08;20.50;1.00
463;DHT22;218;51.902;9.542;2023-06-10T00:59:36;20.50;1.00
463;DHT22;218;51.902;9.542;2023-06-10T01:04:31;20.40;1.00
463;DHT22;218;51.902;9.542;2023-06-10T01:07:05;20.30;1.00
463;DHT22;218;51.902;9.542;2023-06-10T01:09:41;20.20;1.00
463;DHT22;218;51.902;9.542;2023-06-10T01:17:10;19.90;1.00
463;DHT22;218;51.902;9.542;2023-06-10T01:19:38;19.90;1.00
463;DHT22;218;51.902;9.542;2023-06-10T01:22:07;19.60;1.00
463;DHT22;218;51.902;9.542;2023-06-10T01:24:36;19.80;1.00
463;DHT22;218;51.902;9.542;2023-06-10T01:29:37;19.60;1.00
463;DHT22;218;51.902;9.542;2023-06-10T01:32:11;19.50;1.00
463;DHT22;218;51.902;9.542;2023-06-10T01:34:42;19.70;1.00
463;DHT22;218;51.902;9.542;2023-06-10T01:37:13;19.50;1.00
463;DHT22;218;51.902;9.542;2023-06-10T01:39:42;19.50;1.00
463;DHT22;218;51.902;9.542;2023-06-10T01:42:10;19.40;1.00
463;DHT22;218;51.902;9.542;2023-06-10T01:47:06;19.20;1.00
463;DHT22;218;51.902;9.542;2023-06-10T01:49:33;19.30;1.00
463;DHT22;218;51.902;9.542;2023-06-10T01:54:28;19.10;1.00
463;DHT22;218;51.902;9.542;2023-06-10T01:59:22;19.10;1.00
463;DHT22;218;51.902;9.542;2023-06-10T02:04:16;19.00;1.00
463;DHT22;218;51.902;9.542;2023-06-10T02:11:40;19.10;1.00
463;DHT22;218;51.902;9.542;2023-06-10T02:16:34;18.80;1.00
463;DHT22;218;51.902;9.542;2023-06-10T02:19:01;19.00;1.00
463;DHT22;218;51.902;9.542;2023-06-10T02:21:32;18.90;1.00
463;DHT22;218;51.902;9.542;2023-06-10T02:31:22;18.90;1.00
463;DHT22;218;51.902;9.542;2023-06-10T02:33:50;18.50;1.00
463;DHT22;218;51.902;9.542;2023-06-10T02:36:17;18.90;1.00
463;DHT22;218;51.902;9.542;2023-06-10T02:38:44;18.50;1.00
463;DHT22;218;51.902;9.542;2023-06-10T02:41:11;18.70;1.00
463;DHT22;218;51.902;9.542;2023-06-10T02:43:38;18.50;1.00
463;DHT22;218;51.902;9.542;2023-06-10T02:53:35;18.30;1.00
463;DHT22;218;51.902;9.542;2023-06-10T02:58:29;18.40;1.00
463;DHT22;218;51.902;9.542;2023-06-10T03:03:25;18.10;1.00
463;DHT22;218;51.902;9.542;2023-06-10T03:10:47;18.40;1.00
463;DHT22;218;51.902;9.542;2023-06-10T03:18:10;18.10;1.00
463;DHT22;218;51.902;9.542;2023-06-10T03:28:02;18.00;1.00
463;DHT22;218;51.902;9.542;2023-06-10T03:30:29;17.60;1.00
463;DHT22;218;51.902;9.542;2023-06-10T03:45:14;17.30;1.00
463;DHT22;218;51.902;9.542;2023-06-10T03:47:41;18.20;1.00
463;DHT22;218;51.902;9.542;2023-06-10T03:52:38;17.60;1.00
463;DHT22;218;51.902;9.542;2023-06-10T03:57:34;17.90;1.00
463;DHT22;218;51.902;9.542;2023-06-10T04:07:29;17.80;1.00
463;DHT22;218;51.902;9.542;2023-06-10T04:09:56;17.80;1.00
463;DHT22;218;51.902;9.542;2023-06-10T04:29:39;17.40;1.00
463;DHT22;218;51.902;9.542;2023-06-10T04:37:01;18.30;1.00
463;DHT22;218;51.902;9.542;2023-06-10T04:41:57;17.90;1.00
463;DHT22;218;51.902;9.542;2023-06-10T04:49:21;18.00;1.00
463;DHT22;218;51.902;9.542;2023-06-10T04:51:48;17.50;1.00
463;DHT22;218;51.902;9.542;2023-06-10T04:54:16;17.90;1.00
463;DHT22;218;51.902;9.542;2023-06-10T04:56:43;17.20;1.00
463;DHT22;218;51.902;9.542;2023-06-10T05:01:37;17.90;1.00
463;DHT22;218;51.902;9.542;2023-06-10T05:09:01;17.60;1.00
463;DHT22;218;51.902;9.542;2023-06-10T05:18:50;18.80;1.00
463;DHT22;218;51.902;9.542;2023-06-10T05:21:19;18.60;1.00
463;DHT22;218;51.902;9.542;2023-06-10T05:23:46;18.50;1.00
463;DHT22;218;51.902;9.542;2023-06-10T05:28:40;18.40;1.00
463;DHT22;218;51.902;9.542;2023-06-10T05:33:36;18.50;1.00
463;DHT22;218;51.902;9.542;2023-06-10T05:36:03;19.00;1.00
463;DHT22;218;51.902;9.542;2023-06-10T05:40:58;18.70;1.00
463;DHT22;218;51.902;9.542;2023-06-10T05:45:54;19.40;1.00
463;DHT22;218;51.902;9.542;2023-06-10T05:48:21;19.20;1.00
463;DHT22;218;51.902;9.542;2023-06-10T05:50:48;19.40;1.00
463;DHT22;218;51.902;9.542;2023-06-10T05:53:15;19.30;1.00
463;DHT22;218;51.902;9.542;2023-06-10T06:00:39;19.60;1.00
463;DHT22;218;51.902;9.542;2023-06-10T06:03:06;19.80;1.00
463;DHT22;218;51.902;9.542;2023-06-10T06:05:34;19.80;1.00
463;DHT22;218;51.902;9.542;2023-06-10T06:08:08;19.90;1.00
463;DHT22;218;51.902;9.542;2023-06-10T06:10:35;20.00;1.00
463;DHT22;218;51.902;9.542;2023-06-10T06:13:03;20.10;1.00
463;DHT22;218;51.902;9.542;2023-06-10T06:15:30;20.30;1.00
463;DHT22;218;51.902;9.542;2023-06-10T06:17:56;20.40;1.00
463;DHT22;218;51.902;9.542;2023-06-10T06:20:23;20.50;1.00
463;DHT22;218;51.902;9.542;2023-06-10T06:22:50;20.60;1.00
463;DHT22;218;51.902;9.542;2023-06-10T06:25:17;20.90;1.00
463;DHT22;218;51.902;9.542;2023-06-10T06:30:13;21.10;1.00
463;DHT22;218;51.902;9.542;2023-06-10T06:32:40;21.20;1.00
463;DHT22;218;51.902;9.542;2023-06-10T06:35:07;21.40;1.00
463;DHT22;218;51.902;9.542;2023-06-10T06:37:35;21.60;1.00
463;DHT22;218;51.902;9.542;2023-06-10T06:40:02;21.70;1.00
463;DHT22;218;51.902;9.542;2023-06-10T06:42:30;21.80;1.00
463;DHT22;218;51.902;9.542;2023-06-10T06:44:57;21.90;1.00
463;DHT22;218;51.902;9.542;2023-06-10T06:47:26;22.10;1.00
463;DHT22;218;51.902;9.542;2023-06-10T06:49:52;22.20;1.00
463;DHT22;218;51.902;9.542;2023-06-10T06:52:19;22.30;1.00
463;DHT22;218;51.902;9.542;2023-06-10T06:54:47;22.50;1.00
463;DHT22;218;51.902;9.542;2023-06-10T06:57:15;22.50;1.00
463;DHT22;218;51.902;9.542;2023-06-10T06:59:41;22.60;1.00
463;DHT22;218;51.902;9.542;2023-06-10T07:02:08;22.80;1.00
463;DHT22;218;51.902;9.542;2023-06-10T07:04:37;22.90;1.00
463;DHT22;218;51.902;9.542;2023-06-10T07:07:06;23.00;1.00
463;DHT22;218;51.902;9.542;2023-06-10T07:09:33;23.20;1.00
463;DHT22;218;51.902;9.542;2023-06-10T07:12:00;23.30;1.00
463;DHT22;218;51.902;9.542;2023-06-10T07:14:27;23.30;1.00
463;DHT22;218;51.902;9.542;2023-06-10T07:16:54;23.60;1.00
463;DHT22;218;51.902;9.542;2023-06-10T07:19:21;23.60;1.00
463;DHT22;218;51.902;9.542;2023-06-10T07:21:49;23.70;1.00
463;DHT22;218;51.902;9.542;2023-06-10T07:24:16;23.80;1.00
463;DHT22;218;51.902;9.542;2023-06-10T07:26:43;23.90;1.00
463;DHT22;218;51.902;9.542;2023-06-10T07:29:10;24.00;1.00
463;DHT22;218;51.902;9.542;2023-06-10T07:31:36;24.20;1.00
463;DHT22;218;51.902;9.542;2023-06-10T07:34:03;24.30;1.00
463;DHT22;218;51.902;9.542;2023-06-10T07:36:30;24.40;1.00
463;DHT22;218;51.902;9.542;2023-06-10T07:38:58;24.50;1.00
463;DHT22;218;51.902;9.542;2023-06-10T07:41:25;24.60;1.00
463;DHT22;218;51.902;9.542;2023-06-10T07:43:53;24.70;1.00
463;DHT22;218;51.902;9.542;2023-06-10T07:46:21;24.80;1.00
463;DHT22;218;51.902;9.542;2023-06-10T07:48:48;24.90;1.00
463;DHT22;218;51.902;9.542;2023-06-10T07:51:16;25.10;1.00
463;DHT22;218;51.902;9.542;2023-06-10T07:53:43;25.10;1.00
463;DHT22;218;51.902;9.542;2023-06-10T07:56:11;25.30;1.00
463;DHT22;218;51.902;9.542;2023-06-10T07:58:38;25.40;1.00
463;DHT22;218;51.902;9.542;2023-06-10T08:01:05;25.50;1.00
463;DHT22;218;51.902;9.542;2023-06-10T08:03:32;25.60;1.00
463;DHT22;218;51.902;9.542;2023-06-10T08:06:00;25.70;1.00
463;DHT22;218;51.902;9.542;2023-06-10T08:08:26;25.80;1.00
463;DHT22;218;51.902;9.542;2023-06-10T08:10:53;25.90;1.00
463;DHT22;218;51.902;9.542;2023-06-10T08:13:22;26.00;1.00
463;DHT22;218;51.902;9.542;2023-06-10T08:15:48;26.10;1.00
463;DHT22;218;51.902;9.542;2023-06-10T08:18:16;26.20;1.00
463;DHT22;218;51.902;9.542;2023-06-10T08:20:43;26.30;1.00
463;DHT22;218;51.902;9.542;2023-06-10T08:23:10;26.40;1.00
463;DHT22;218;51.902;9.542;2023-06-10T08:25:37;26.60;1.00
463;DHT22;218;51.902;9.542;2023-06-10T08:28:04;26.70;1.00
463;DHT22;218;51.902;9.542;2023-06-10T08:30:32;26.70;1.00
463;DHT22;218;51.902;9.542;2023-06-10T08:33:00;26.90;1.00
463;DHT22;218;51.902;9.542;2023-06-10T08:35:26;27.00;1.00
463;DHT22;218;51.902;9.542;2023-06-10T08:37:53;27.10;1.00
463;DHT22;218;51.902;9.542;2023-06-10T08:40:20;27.10;1.00
463;DHT22;218;51.902;9.542;2023-06-10T08:42:54;27.20;1.00
463;DHT22;218;51.902;9.542;2023-06-10T08:45:24;27.30;1.00
463;DHT22;218;51.902;9.542;2023-06-10T08:47:58;27.40;1.00
463;DHT22;218;51.902;9.542;2023-06-10T08:50:26;27.50;1.00
463;DHT22;218;51.902;9.542;2023-06-10T08:52:57;27.60;1.00
463;DHT22;218;51.902;9.542;2023-06-10T08:55:29;27.70;1.00
463;DHT22;218;51.902;9.542;2023-06-10T08:57:57;27.80;1.00
463;DHT22;218;51.902;9.542;2023-06-10T09:00:26;27.90;1.00
463;DHT22;218;51.902;9.542;2023-06-10T09:02:53;28.00;1.00
463;DHT22;218;51.902;9.542;2023-06-10T09:05:22;28.10;1.00
463;DHT22;218;51.902;9.542;2023-06-10T09:07:49;28.20;1.00
463;DHT22;218;51.902;9.542;2023-06-10T09:10:18;28.30;1.00
463;DHT22;218;51.902;9.542;2023-06-10T09:12:45;28.40;1.00
463;DHT22;218;51.902;9.542;2023-06-10T09:15:12;28.50;1.00
463;DHT22;218;51.902;9.542;2023-06-10T09:17:40;28.60;1.00
463;DHT22;218;51.902;9.542;2023-06-10T09:20:08;28.80;1.00
463;DHT22;218;51.902;9.542;2023-06-10T09:22:36;28.80;1.00
463;DHT22;218;51.902;9.542;2023-06-10T09:25:05;28.90;1.00
463;DHT22;218;51.902;9.542;2023-06-10T09:27:32;29.00;1.00
463;DHT22;218;51.902;9.542;2023-06-10T09:30:00;29.20;1.00
463;DHT22;218;51.902;9.542;2023-06-10T09:32:27;29.30;1.00
463;DHT22;218;51.902;9.542;2023-06-10T09:34:55;29.40;1.00
463;DHT22;218;51.902;9.542;2023-06-10T09:37:22;29.50;1.00
463;DHT22;218;51.902;9.542;2023-06-10T09:40:05;29.50;1.00
463;DHT22;218;51.902;9.542;2023-06-10T09:42:33;29.60;1.00
463;DHT22;218;51.902;9.542;2023-06-10T09:45:01;29.70;1.00
463;DHT22;218;51.902;9.542;2023-06-10T09:47:28;29.70;1.00
463;DHT22;218;51.902;9.542;2023-06-10T09:49:55;29.90;1.00
463;DHT22;218;51.902;9.542;2023-06-10T09:52:22;29.90;1.00
463;DHT22;218;51.902;9.542;2023-06-10T09:54:50;30.00;1.00
463;DHT22;218;51.902;9.542;2023-06-10T09:57:20;30.10;1.00
463;DHT22;218;51.902;9.542;2023-06-10T09:59:48;30.20;1.00
463;DHT22;218;51.902;9.542;2023-06-10T10:02:15;30.30;1.00
463;DHT22;218;51.902;9.542;2023-06-10T10:04:42;30.40;1.00
463;DHT22;218;51.902;9.542;2023-06-10T10:07:09;30.40;1.00
463;DHT22;218;51.902;9.542;2023-06-10T10:09:36;30.50;1.00
463;DHT22;218;51.902;9.542;2023-06-10T10:12:08;30.60;1.00
463;DHT22;218;51.902;9.542;2023-06-10T10:14:37;30.60;1.00
463;DHT22;218;51.902;9.542;2023-06-10T10:17:07;30.70;1.00
463;DHT22;218;51.902;9.542;2023-06-10T10:19:46;30.80;1.00
463;DHT22;218;51.902;9.542;2023-06-10T10:22:19;30.90;1.00
463;DHT22;218;51.902;9.542;2023-06-10T10:24:49;31.00;1.00
463;DHT22;218;51.902;9.542;2023-06-10T10:27:20;31.00;1.00
463;DHT22;218;51.902;9.542;2023-06-10T10:29:52;31.10;1.00
463;DHT22;218;51.902;9.542;2023-06-10T10:32:24;31.20;1.00
463;DHT22;218;51.902;9.542;2023-06-10T10:35:00;31.30;1.00
463;DHT22;218;51.902;9.542;2023-06-10T10:37:30;31.30;1.00
463;DHT22;218;51.902;9.542;2023-06-10T10:39:58;31.40;1.00
463;DHT22;218;51.902;9.542;2023-06-10T10:42:27;31.50;1.00
463;DHT22;218;51.902;9.542;2023-06-10T10:44:55;31.50;1.00
463;DHT22;218;51.902;9.542;2023-06-10T10:47:22;31.60;1.00
463;DHT22;218;51.902;9.542;2023-06-10T10:49:52;31.70;1.00
463;DHT22;218;51.902;9.542;2023-06-10T10:52:19;31.70;1.00
463;DHT22;218;51.902;9.542;2023-06-10T10:54:47;31.80;1.00
463;DHT22;218;51.902;9.542;2023-06-10T10:57:16;31.80;1.00
463;DHT22;218;51.902;9.542;2023-06-10T10:59:57;31.90;1.00
463;DHT22;218;51.902;9.542;2023-06-10T11:02:34;31.90;1.00
463;DHT22;218;51.902;9.542;2023-06-10T11:05:05;32.00;1.00
463;DHT22;218;51.902;9.542;2023-06-10T11:07:33;32.10;1.00
463;DHT22;218;51.902;9.542;2023-06-10T11:10:02;32.10;1.00
463;DHT22;218;51.902;9.542;2023-06-10T11:12:51;32.10;1.00
463;DHT22;218;51.902;9.542;2023-06-10T11:15:25;32.20;1.00
463;DHT22;218;51.902;9.542;2023-06-10T11:18:15;32.30;1.00
463;DHT22;218;51.902;9.542;2023-06-10T11:20:52;32.30;1.00
463;DHT22;218;51.902;9.542;2023-06-10T11:23:42;32.30;1.00
463;DHT22;218;51.902;9.542;2023-06-10T11:26:13;32.40;1.00
463;DHT22;218;51.902;9.542;2023-06-10T11:28:41;32.40;1.00
463;DHT22;218;51.902;9.542;2023-06-10T11:31:13;32.50;1.00
463;DHT22;218;51.902;9.542;2023-06-10T11:33:46;32.60;1.00
463;DHT22;218;51.902;9.542;2023-06-10T11:36:13;32.60;1.00
463;DHT22;218;51.902;9.542;2023-06-10T11:38:40;32.70;1.00
463;DHT22;218;51.902;9.542;2023-06-10T11:41:07;32.80;1.00
463;DHT22;218;51.902;9.542;2023-06-10T11:43:34;32.80;1.00
463;DHT22;218;51.902;9.542;2023-06-10T11:46:01;32.80;1.00
463;DHT22;218;51.902;9.542;2023-06-10T11:48:29;32.80;1.00
463;DHT22;218;51.902;9.542;2023-06-10T11:50:56;32.90;1.00
463;DHT22;218;51.902;9.542;2023-06-10T11:53:23;33.00;1.00
463;DHT22;218;51.902;9.542;2023-06-10T11:55:51;33.00;1.00
463;DHT22;218;51.902;9.542;2023-06-10T11:58:20;33.10;1.00
463;DHT22;218;51.902;9.542;2023-06-10T12:00:48;33.10;1.00
463;DHT22;218;51.902;9.542;2023-06-10T12:03:15;33.20;1.00
463;DHT22;218;51.902;9.542;2023-06-10T12:05:56;33.30;1.00
463;DHT22;218;51.902;9.542;2023-06-10T12:08:23;33.30;1.00
463;DHT22;218;51.902;9.542;2023-06-10T12:10:51;33.40;1.00
463;DHT22;218;51.902;9.542;2023-06-10T12:13:18;33.50;1.00
463;DHT22;218;51.902;9.542;2023-06-10T12:15:45;33.50;1.00
463;DHT22;218;51.902;9.542;2023-06-10T12:18:16;33.60;1.00
463;DHT22;218;51.902;9.542;2023-06-10T12:20:46;33.70;1.00
463;DHT22;218;51.902;9.542;2023-06-10T12:23:16;33.70;1.00
463;DHT22;218;51.902;9.542;2023-06-10T12:25:50;33.80;1.00
463;DHT22;218;51.902;9.542;2023-06-10T12:28:21;33.90;1.00
463;DHT22;218;51.902;9.542;2023-06-10T12:30:48;34.00;1.00
463;DHT22;218;51.902;9.542;2023-06-10T12:33:18;34.00;1.00
463;DHT22;218;51.902;9.542;2023-06-10T12:35:49;34.10;1.00
463;DHT22;218;51.902;9.542;2023-06-10T12:38:22;34.20;1.00
463;DHT22;218;51.902;9.542;2023-06-10T12:40:52;34.30;1.00
463;DHT22;218;51.902;9.542;2023-06-10T12:43:19;34.30;1.00
463;DHT22;218;51.902;9.542;2023-06-10T12:45:46;34.40;1.00
463;DHT22;218;51.902;9.542;2023-06-10T12:48:18;34.50;1.00
463;DHT22;218;51.902;9.542;2023-06-10T12:50:50;34.60;1.00
463;DHT22;218;51.902;9.542;2023-06-10T12:53:19;34.60;1.00
463;DHT22;218;51.902;9.542;2023-06-10T12:55:47;34.70;1.00
463;DHT22;218;51.902;9.542;2023-06-10T12:58:14;34.80;1.00
463;DHT22;218;51.902;9.542;2023-06-10T13:00:41;34.80;1.00
463;DHT22;218;51.902;9.542;2023-06-10T13:03:09;34.90;1.00
463;DHT22;218;51.902;9.542;2023-06-10T13:05:37;34.90;1.00
463;DHT22;218;51.902;9.542;2023-06-10T13:08:04;34.90;1.00
463;DHT22;218;51.902;9.542;2023-06-10T13:10:33;35.00;1.00
463;DHT22;218;51.902;9.542;2023-06-10T13:13:02;35.00;1.00
463;DHT22;218;51.902;9.542;2023-06-10T13:15:31;35.10;1.00
463;DHT22;218;51.902;9.542;2023-06-10T13:18:03;35.20;1.00
463;DHT22;218;51.902;9.542;2023-06-10T13:20:32;35.20;1.00
463;DHT22;218;51.902;9.542;2023-06-10T13:22:59;35.30;1.00
463;DHT22;218;51.902;9.542;2023-06-10T13:25:27;35.40;1.00
463;DHT22;218;51.902;9.542;2023-06-10T13:27:57;35.40;1.00
463;DHT22;218;51.902;9.542;2023-06-10T13:30:25;35.50;1.00
463;DHT22;218;51.902;9.542;2023-06-10T13:32:52;35.50;1.00
463;DHT22;218;51.902;9.542;2023-06-10T13:35:19;35.60;1.00
463;DHT22;218;51.902;9.542;2023-06-10T13:37:46;35.60;1.00
463;DHT22;218;51.902;9.542;2023-06-10T13:40:14;35.70;1.00
463;DHT22;218;51.902;9.542;2023-06-10T13:42:41;35.70;1.00
463;DHT22;218;51.902;9.542;2023-06-10T13:45:09;35.70;1.00
463;DHT22;218;51.902;9.542;2023-06-10T13:47:37;35.70;1.00
463;DHT22;218;51.902;9.542;2023-06-10T13:50:05;35.60;1.00
463;DHT22;218;51.902;9.542;2023-06-10T13:52:32;35.60;1.00
463;DHT22;218;51.902;9.542;2023-06-10T13:54:59;35.60;1.00
463;DHT22;218;51.902;9.542;2023-06-10T13:57:26;35.70;1.00
463;DHT22;218;51.902;9.542;2023-06-10T13:59:53;35.70;1.00
463;DHT22;218;51.902;9.542;2023-06-10T14:02:21;35.70;1.00
463;DHT22;218;51.902;9.542;2023-06-10T14:04:49;35.80;1.00
463;DHT22;218;51.902;9.542;2023-06-10T14:07:16;35.90;1.00
463;DHT22;218;51.902;9.542;2023-06-10T14:09:43;35.90;1.00
463;DHT22;218;51.902;9.542;2023-06-10T14:12:10;35.90;1.00
463;DHT22;218;51.902;9.542;2023-06-10T14:14:38;35.90;1.00
463;DHT22;218;51.902;9.542;2023-06-10T14:17:05;36.00;1.00
463;DHT22;218;51.902;9.542;2023-06-10T14:19:32;36.00;1.00
463;DHT22;218;51.902;9.542;2023-06-10T14:22:03;36.00;1.00
463;DHT22;218;51.902;9.542;2023-06-10T14:24:30;36.00;1.00
463;DHT22;218;51.902;9.542;2023-06-10T14:26:57;36.10;1.00
463;DHT22;218;51.902;9.542;2023-06-10T14:29:24;36.10;1.00
463;DHT22;218;51.902;9.542;2023-06-10T14:31:54;36.10;1.00
463;DHT22;218;51.902;9.542;2023-06-10T14:34:21;36.10;1.00
463;DHT22;218;51.902;9.542;2023-06-10T14:36:49;36.10;1.00
463;DHT22;218;51.902;9.542;2023-06-10T14:39:17;36.10;1.00
463;DHT22;218;51.902;9.542;2023-06-10T14:41:44;36.00;1.00
463;DHT22;218;51.902;9.542;2023-06-10T14:44:11;36.00;1.00
463;DHT22;218;51.902;9.542;2023-06-10T14:46:37;36.00;1.00
463;DHT22;218;51.902;9.542;2023-06-10T14:49:04;36.00;1.00
463;DHT22;218;51.902;9.542;2023-06-10T14:51:31;36.00;1.00
463;DHT22;218;51.902;9.542;2023-06-10T14:53:58;36.00;1.00
463;DHT22;218;51.902;9.542;2023-06-10T14:56:26;36.00;1.00
463;DHT22;218;51.902;9.542;2023-06-10T14:58:54;36.00;1.00
463;DHT22;218;51.902;9.542;2023-06-10T15:01:20;36.00;1.00
463;DHT22;218;51.902;9.542;2023-06-10T15:03:47;36.00;1.00
463;DHT22;218;51.902;9.542;2023-06-10T15:06:14;36.00;1.00
463;DHT22;218;51.902;9.542;2023-06-10T15:08:42;35.90;1.00
463;DHT22;218;51.902;9.542;2023-06-10T15:11:10;35.90;1.00
463;DHT22;218;51.902;9.542;2023-06-10T15:13:39;35.80;1.00
463;DHT22;218;51.902;9.542;2023-06-10T15:16:05;35.70;1.00
463;DHT22;218;51.902;9.542;2023-06-10T15:18:32;35.70;1.00
463;DHT22;218;51.902;9.542;2023-06-10T15:20:59;35.60;1.00
463;DHT22;218;51.902;9.542;2023-06-10T15:23:26;35.60;1.00
463;DHT22;218;51.902;9.542;2023-06-10T15:25:53;35.50;1.00
463;DHT22;218;51.902;9.542;2023-06-10T15:28:20;35.50;1.00
463;DHT22;218;51.902;9.542;2023-06-10T15:30:48;35.40;1.00
463;DHT22;218;51.902;9.542;2023-06-10T15:33:15;35.30;1.00
463;DHT22;218;51.902;9.542;2023-06-10T15:35:42;35.20;1.00
463;DHT22;218;51.902;9.542;2023-06-10T15:38:09;35.20;1.00
463;DHT22;218;51.902;9.542;2023-06-10T15:40:36;35.00;1.00
463;DHT22;218;51.902;9.542;2023-06-10T15:43:03;35.00;1.00
463;DHT22;218;51.902;9.542;2023-06-10T15:45:30;34.90;1.00
463;DHT22;218;51.902;9.542;2023-06-10T15:47:58;34.80;1.00
463;DHT22;218;51.902;9.542;2023-06-10T15:50:25;34.80;1.00
463;DHT22;218;51.902;9.542;2023-06-10T15:52:52;34.70;1.00
463;DHT22;218;51.902;9.542;2023-06-10T15:55:19;34.70;1.00
463;DHT22;218;51.902;9.542;2023-06-10T15:57:46;34.60;1.00
463;DHT22;218;51.902;9.542;2023-06-10T16:00:14;34.50;1.00
463;DHT22;218;51.902;9.542;2023-06-10T16:02:41;34.50;1.00
463;DHT22;218;51.902;9.542;2023-06-10T16:05:09;34.50;1.00
463;DHT22;218;51.902;9.542;2023-06-10T16:07:36;34.40;1.00
463;DHT22;218;51.902;9.542;2023-06-10T16:10:04;34.40;1.00
463;DHT22;218;51.902;9.542;2023-06-10T16:12:31;34.40;1.00
463;DHT22;218;51.902;9.542;2023-06-10T16:14:58;34.30;1.00
463;DHT22;218;51.902;9.542;2023-06-10T16:17:24;34.20;1.00
463;DHT22;218;51.902;9.542;2023-06-10T16:19:51;34.20;1.00
463;DHT22;218;51.902;9.542;2023-06-10T16:22:20;34.20;1.00
463;DHT22;218;51.902;9.542;2023-06-10T16:24:46;34.10;1.00
463;DHT22;218;51.902;9.542;2023-06-10T16:27:13;34.10;1.00
463;DHT22;218;51.902;9.542;2023-06-10T16:29:40;34.00;1.00
463;DHT22;218;51.902;9.542;2023-06-10T16:32:08;33.90;1.00
463;DHT22;218;51.902;9.542;2023-06-10T16:34:34;33.90;1.00
463;DHT22;218;51.902;9.542;2023-06-10T16:37:01;33.80;1.00
463;DHT22;218;51.902;9.542;2023-06-10T16:39:30;33.80;1.00
463;DHT22;218;51.902;9.542;2023-06-10T16:41:57;33.70;1.00
463;DHT22;218;51.902;9.542;2023-06-10T16:44:24;33.60;1.00
463;DHT22;218;51.902;9.542;2023-06-10T16:46:51;33.60;1.00
463;DHT22;218;51.902;9.542;2023-06-10T16:49:17;33.50;1.00
463;DHT22;218;51.902;9.542;2023-06-10T16:51:44;33.40;1.00
463;DHT22;218;51.902;9.542;2023-06-10T16:54:11;33.40;1.00
463;DHT22;218;51.902;9.542;2023-06-10T16:56:39;33.40;1.00
463;DHT22;218;51.902;9.542;2023-06-10T16:59:06;33.30;1.00
463;DHT22;218;51.902;9.542;2023-06-10T17:01:35;33.20;1.00
463;DHT22;218;51.902;9.542;2023-06-10T17:04:01;33.20;1.00
463;DHT22;218;51.902;9.542;2023-06-10T17:06:28;33.20;1.00
463;DHT22;218;51.902;9.542;2023-06-10T17:08:55;33.10;1.00
463;DHT22;218;51.902;9.542;2023-06-10T17:11:22;33.00;1.00
463;DHT22;218;51.902;9.542;2023-06-10T17:13:50;33.00;1.00
463;DHT22;218;51.902;9.542;2023-06-10T17:16:17;33.00;1.00
463;DHT22;218;51.902;9.542;2023-06-10T17:18:44;33.00;1.00
463;DHT22;218;51.902;9.542;2023-06-10T17:21:11;33.00;1.00
463;DHT22;218;51.902;9.542;2023-06-10T17:23:39;33.00;1.00
463;DHT22;218;51.902;9.542;2023-06-10T17:26:06;32.90;1.00
463;DHT22;218;51.902;9.542;2023-06-10T17:28:33;32.80;1.00
463;DHT22;218;51.902;9.542;2023-06-10T17:31:01;32.80;1.00
463;DHT22;218;51.902;9.542;2023-06-10T17:33:28;32.70;1.00
463;DHT22;218;51.902;9.542;2023-06-10T17:35:55;32.60;1.00
463;DHT22;218;51.902;9.542;2023-06-10T17:38:21;32.40;1.00
463;DHT22;218;51.902;9.542;2023-06-10T17:40:48;32.30;1.00
463;DHT22;218;51.902;9.542;2023-06-10T17:43:15;32.30;1.00
463;DHT22;218;51.902;9.542;2023-06-10T17:45:43;32.10;1.00
463;DHT22;218;51.902;9.542;2023-06-10T17:48:11;31.90;1.00
463;DHT22;218;51.902;9.542;2023-06-10T17:50:38;31.80;1.00
463;DHT22;218;51.902;9.542;2023-06-10T17:53:08;31.70;1.00
463;DHT22;218;51.902;9.542;2023-06-10T17:55:35;31.50;1.00
463;DHT22;218;51.902;9.542;2023-06-10T17:58:02;31.40;1.00
463;DHT22;218;51.902;9.542;2023-06-10T18:00:29;31.30;1.00
463;DHT22;218;51.902;9.542;2023-06-10T18:02:56;31.20;1.00
463;DHT22;218;51.902;9.542;2023-06-10T18:05:24;31.10;1.00
463;DHT22;218;51.902;9.542;2023-06-10T18:07:51;31.00;1.00
463;DHT22;218;51.902;9.542;2023-06-10T18:10:19;30.90;1.00
463;DHT22;218;51.902;9.542;2023-06-10T18:12:46;30.90;1.00
463;DHT22;218;51.902;9.542;2023-06-10T18:15:13;30.90;1.00
463;DHT22;218;51.902;9.542;2023-06-10T18:17:40;30.80;1.00
463;DHT22;218;51.902;9.542;2023-06-10T18:20:07;30.80;1.00
463;DHT22;218;51.902;9.542;2023-06-10T18:22:36;30.80;1.00
463;DHT22;218;51.902;9.542;2023-06-10T18:25:03;30.70;1.00
463;DHT22;218;51.902;9.542;2023-06-10T18:27:30;30.70;1.00
463;DHT22;218;51.902;9.542;2023-06-10T18:29:58;30.60;1.00
463;DHT22;218;51.902;9.542;2023-06-10T18:32:25;30.60;1.00
463;DHT22;218;51.902;9.542;2023-06-10T18:34:51;30.60;1.00
463;DHT22;218;51.902;9.542;2023-06-10T18:37:19;30.50;1.00
463;DHT22;218;51.902;9.542;2023-06-10T18:39:47;30.40;1.00
463;DHT22;218;51.902;9.542;2023-06-10T18:42:14;30.40;1.00
463;DHT22;218;51.902;9.542;2023-06-10T18:44:41;30.30;1.00
463;DHT22;218;51.902;9.542;2023-06-10T18:47:09;30.20;1.00
463;DHT22;218;51.902;9.542;2023-06-10T18:49:36;30.10;1.00
463;DHT22;218;51.902;9.542;2023-06-10T18:52:03;29.90;1.00
463;DHT22;218;51.902;9.542;2023-06-10T18:54:30;29.80;1.00
463;DHT22;218;51.902;9.542;2023-06-10T18:56:58;29.70;1.00
463;DHT22;218;51.902;9.542;2023-06-10T18:59:25;29.50;1.00
463;DHT22;218;51.902;9.542;2023-06-10T19:01:52;29.40;1.00
463;DHT22;218;51.902;9.542;2023-06-10T19:04:19;29.20;1.00
463;DHT22;218;51.902;9.542;2023-06-10T19:06:47;29.10;1.00
463;DHT22;218;51.902;9.542;2023-06-10T19:09:14;28.90;1.00
463;DHT22;218;51.902;9.542;2023-06-10T19:11:41;28.80;1.00
463;DHT22;218;51.902;9.542;2023-06-10T19:14:10;28.70;1.00
463;DHT22;218;51.902;9.542;2023-06-10T19:16:37;28.60;1.00
463;DHT22;218;51.902;9.542;2023-06-10T19:19:03;28.50;1.00
463;DHT22;218;51.902;9.542;2023-06-10T19:21:30;28.30;1.00
463;DHT22;218;51.902;9.542;2023-06-10T19:23:57;28.20;1.00
463;DHT22;218;51.902;9.542;2023-06-10T19:26:24;28.00;1.00
463;DHT22;218;51.902;9.542;2023-06-10T19:28:51;27.80;1.00